Time;durP1;ratioP1;P1;durP2;ratioP2;P2;SDS_P1;SDS_P2;PMS_P1;PMS_P2;Temp;Humidity;BMP_temperature;BMP_pressure;BME280_temperature;BME280_humidity;BME280_pressure;Samples;Min_cycle;Max_cycle;Signal;HPM_P1;HPM_P2
2022/08/16 00:00:40;;;;;;;14.33;13.00;;;20.70;99.90;;;;;;4971049;28;20193;-65
2022/08/16 00:03:08;;;;;;;13.20;11.87;;;20.70;99.90;;;;;;4960598;28;20217;-64
2022/08/16 00:05:34;;;;;;;12.13;11.03;;;20.70;99.90;;;;;;4976520;28;20193;-65
2022/08/16 00:07:59;;;;;;;14.23;12.90;;;20.70;99.90;;;;;;4963332;28;20572;-65
2022/08/16 00:10:28;;;;;;;12.53;11.43;;;20.60;99.90;;;;;;4976734;28;20209;-65
2022/08/16 00:12:53;;;;;;;14.57;13.20;;;20.70;99.90;;;;;;4960153;28;20213;-65
2022/08/16 00:15:24;;;;;;;12.43;11.43;;;20.60;99.90;;;;;;4973795;28;20196;-64
2022/08/16 00:17:50;;;;;;;13.07;11.90;;;20.60;99.90;;;;;;4952995;28;20767;-64
2022/08/16 00:20:17;;;;;;;12.40;11.33;;;20.60;99.90;;;;;;4978351;28;20204;-64
2022/08/16 00:22:43;;;;;;;12.63;11.53;;;20.60;99.90;;;;;;4963884;28;20209;-64
2022/08/16 00:25:12;;;;;;;12.47;11.40;;;20.60;99.90;;;;;;4979337;28;20194;-64
2022/08/16 00:27:38;;;;;;;12.90;11.63;;;20.60;99.90;;;;;;4971729;28;20202;-64
2022/08/16 00:30:07;;;;;;;12.03;11.10;;;20.60;99.90;;;;;;4974765;28;20194;-64
2022/08/16 00:32:32;;;;;;;11.97;10.93;;;20.60;99.90;;;;;;4958769;28;20265;-65
2022/08/16 00:34:58;;;;;;;12.63;11.33;;;20.50;99.90;;;;;;4974076;28;20757;-65
2022/08/16 00:37:25;;;;;;;11.93;10.73;;;20.50;99.90;;;;;;4966061;28;20220;-65
2022/08/16 00:39:52;;;;;;;11.70;10.73;;;20.50;99.90;;;;;;4972572;28;20220;-65
2022/08/16 00:42:18;;;;;;;11.67;10.47;;;20.50;99.90;;;;;;4958556;28;20462;-64
2022/08/16 00:44:51;;;;;;;12.33;11.23;;;20.50;99.90;;;;;;4967952;28;20711;-64
2022/08/16 00:47:18;;;;;;;11.27;10.30;;;20.40;99.90;;;;;;4946999;28;20261;-63
2022/08/16 00:49:43;;;;;;;17.00;11.63;;;20.30;99.90;;;;;;4973317;28;20667;-64
2022/08/16 00:52:09;;;;;;;12.50;11.30;;;20.30;99.90;;;;;;4968107;28;20240;-65
2022/08/16 00:54:36;;;;;;;12.70;11.60;;;20.10;99.90;;;;;;4966403;28;20545;-63
2022/08/16 00:57:02;;;;;;;12.57;11.50;;;20.10;99.90;;;;;;4967734;28;20181;-61
2022/08/16 00:59:31;;;;;;;12.37;11.30;;;20.00;99.90;;;;;;4967295;28;20236;-63
2022/08/16 01:01:57;;;;;;;12.50;11.40;;;20.00;99.90;;;;;;4967961;28;20197;-62
2022/08/16 01:04:25;;;;;;;12.43;11.40;;;19.90;99.90;;;;;;4967851;28;20228;-62
2022/08/16 01:06:51;;;;;;;13.93;12.67;;;19.90;99.90;;;;;;4961555;28;20268;-62
2022/08/16 01:09:17;;;;;;;12.87;11.73;;;19.90;99.90;;;;;;4967535;28;20279;-63
2022/08/16 01:11:43;;;;;;;13.00;11.70;;;19.80;99.90;;;;;;4967643;28;20287;-62
2022/08/16 01:14:20;;;;;;;13.40;12.10;;;19.80;99.90;;;;;;4956220;28;20539;-62
2022/08/16 01:16:47;;;;;;;13.90;12.67;;;19.70;99.90;;;;;;4960040;28;20247;-62
2022/08/16 01:19:40;;;;;;;13.90;12.70;;;19.70;99.90;;;;;;4961729;28;20208;-63
2022/08/16 01:22:15;;;;;;;13.00;11.70;;;19.70;99.90;;;;;;4946967;28;20669;-62
2022/08/16 01:24:52;;;;;;;13.60;12.30;;;19.70;99.90;;;;;;4958736;28;20182;-62
2022/08/16 01:27:30;;;;;;;13.87;12.57;;;19.70;99.90;;;;;;4956703;28;20194;-62
2022/08/16 01:30:08;;;;;;;14.77;13.17;;;19.70;99.90;;;;;;4958992;28;20196;-62
2022/08/16 01:32:37;;;;;;;13.37;12.20;;;19.70;99.90;;;;;;4957185;28;20214;-61
2022/08/16 01:35:12;;;;;;;15.10;13.80;;;19.70;99.90;;;;;;4970031;28;20232;-61
2022/08/16 01:37:40;;;;;;;14.47;13.13;;;19.70;99.90;;;;;;4945835;28;20217;-62
2022/08/16 01:40:06;;;;;;;15.70;14.27;;;19.70;99.90;;;;;;4963118;28;20209;-61
2022/08/16 01:42:32;;;;;;;14.43;13.07;;;19.60;99.90;;;;;;4976064;28;20582;-62
2022/08/16 01:44:58;;;;;;;14.90;12.90;;;19.60;99.90;;;;;;4959376;28;20199;-62
2022/08/16 01:47:24;;;;;;;16.33;14.63;;;19.60;99.90;;;;;;4969620;28;20719;-62
2022/08/16 01:49:49;;;;;;;16.20;14.67;;;19.60;99.90;;;;;;4957072;28;20193;-62
2022/08/16 01:52:17;;;;;;;15.97;14.40;;;19.60;99.90;;;;;;4969933;28;20288;-62
2022/08/16 01:54:42;;;;;;;15.17;13.67;;;19.60;99.90;;;;;;4959603;28;20193;-63
2022/08/16 01:57:08;;;;;;;16.20;14.63;;;19.60;99.90;;;;;;4974707;28;20200;-63
2022/08/16 01:59:36;;;;;;;17.03;15.53;;;19.60;99.90;;;;;;4954316;28;20192;-61
2022/08/16 02:02:03;;;;;;;16.10;14.73;;;19.50;99.90;;;;;;4982359;28;20228;-62
2022/08/16 02:04:31;;;;;;;15.47;14.03;;;19.50;99.90;;;;;;4954310;28;20212;-62
2022/08/16 02:06:58;;;;;;;16.23;14.67;;;19.50;99.90;;;;;;4959806;28;20641;-62
2022/08/16 02:09:24;;;;;;;16.23;14.83;;;19.50;99.90;;;;;;4950211;28;20695;-62
2022/08/16 02:11:53;;;;;;;17.03;15.53;;;19.50;99.90;;;;;;4980051;28;20224;-62
2022/08/16 02:14:25;;;;;;;18.57;14.50;;;19.50;99.90;;;;;;4951631;28;20237;-62
2022/08/16 02:16:51;;;;;;;15.77;14.40;;;19.40;99.90;;;;;;4976524;28;20220;-61
2022/08/16 02:19:18;;;;;;;16.07;14.67;;;19.40;99.90;;;;;;4955038;28;20676;-61
2022/08/16 02:21:48;;;;;;;16.63;15.03;;;19.40;99.90;;;;;;4975704;28;20234;-61
2022/08/16 02:24:14;;;;;;;17.63;16.07;;;19.40;99.90;;;;;;4962998;28;20210;-61
2022/08/16 02:26:39;;;;;;;16.80;15.03;;;19.40;99.90;;;;;;4972627;28;20208;-62
2022/08/16 02:29:05;;;;;;;18.43;16.00;;;19.40;99.90;;;;;;4953063;28;20260;-61
2022/08/16 02:31:30;;;;;;;16.50;14.90;;;19.40;99.90;;;;;;4985581;28;20280;-62
2022/08/16 02:33:56;;;;;;;16.97;15.37;;;19.40;99.90;;;;;;4962913;28;20206;-63
2022/08/16 02:36:21;;;;;;;17.10;15.50;;;19.40;99.90;;;;;;4982991;28;20226;-62
2022/08/16 02:38:47;;;;;;;18.07;16.43;;;19.40;99.90;;;;;;4958543;28;20212;-62
2022/08/16 02:41:12;;;;;;;17.03;15.30;;;19.40;99.90;;;;;;4984018;28;20209;-63
2022/08/16 02:43:38;;;;;;;17.97;16.37;;;19.40;99.90;;;;;;4954619;28;20711;-63
2022/08/16 02:46:05;;;;;;;17.53;15.83;;;19.40;99.90;;;;;;4964103;28;20288;-64
2022/08/16 02:48:31;;;;;;;18.33;16.50;;;19.40;99.90;;;;;;4967427;28;20198;-62
2022/08/16 02:50:58;;;;;;;16.40;14.90;;;19.30;99.90;;;;;;4966889;28;20547;-62
2022/08/16 02:53:24;;;;;;;17.93;16.23;;;19.30;99.90;;;;;;4969533;28;20316;-64
2022/08/16 02:55:51;;;;;;;18.27;16.57;;;19.30;99.90;;;;;;4969896;28;20297;-63
2022/08/16 02:58:18;;;;;;;18.07;16.43;;;19.30;99.90;;;;;;4971696;28;20206;-62
2022/08/16 03:00:44;;;;;;;18.60;16.80;;;19.30;99.90;;;;;;4975740;28;20542;-64
2022/08/16 03:03:09;;;;;;;17.93;16.07;;;19.30;99.90;;;;;;4964645;28;20237;-63
2022/08/16 03:05:35;;;;;;;20.00;18.10;;;19.30;99.90;;;;;;4958105;28;20224;-63
2022/08/16 03:08:00;;;;;;;19.93;17.93;;;19.20;99.90;;;;;;4976134;28;20565;-63
2022/08/16 03:10:26;;;;;;;19.27;17.57;;;19.20;99.90;;;;;;4964094;28;20425;-63
2022/08/16 03:12:51;;;;;;;19.53;17.40;;;19.20;99.90;;;;;;4967814;28;20263;-63
2022/08/16 03:15:17;;;;;;;19.77;17.93;;;19.20;99.90;;;;;;4961282;28;20182;-63
2022/08/16 03:17:44;;;;;;;18.40;16.63;;;19.20;99.90;;;;;;4964465;28;20280;-63
2022/08/16 03:20:13;;;;;;;19.97;18.17;;;19.20;99.90;;;;;;4954257;28;20691;-63
2022/08/16 03:22:39;;;;;;;19.13;17.43;;;19.20;99.90;;;;;;4979106;28;20275;-61
2022/08/16 03:25:07;;;;;;;18.67;16.67;;;19.10;99.90;;;;;;4966365;28;20190;-61
2022/08/16 03:27:33;;;;;;;20.17;18.27;;;19.10;99.90;;;;;;4975396;28;20208;-62
2022/08/16 03:30:07;;;;;;;19.90;18.00;;;19.10;99.90;;;;;;4956114;28;20243;-62
2022/08/16 03:32:33;;;;;;;19.83;18.03;;;19.20;99.90;;;;;;4957961;28;20217;-62
2022/08/16 03:34:58;;;;;;;20.27;18.37;;;19.20;99.90;;;;;;4966383;28;20227;-62
2022/08/16 03:37:24;;;;;;;19.73;17.93;;;19.10;99.90;;;;;;4981370;28;20223;-63
2022/08/16 03:39:49;;;;;;;19.63;17.53;;;19.10;99.90;;;;;;4957508;28;20238;-63
2022/08/16 03:42:15;;;;;;;19.60;17.50;;;19.10;99.90;;;;;;4968267;28;20672;-63
2022/08/16 03:44:42;;;;;;;20.87;18.97;;;19.10;99.90;;;;;;4955252;28;20218;-62
2022/08/16 03:47:08;;;;;;;20.10;17.27;;;19.00;99.90;;;;;;4979860;28;20340;-62
2022/08/16 03:49:34;;;;;;;17.97;16.47;;;19.00;99.90;;;;;;4959569;28;20724;-63
2022/08/16 03:52:00;;;;;;;20.23;18.37;;;19.00;99.90;;;;;;4973119;28;20209;-63
2022/08/16 03:54:26;;;;;;;19.33;17.57;;;19.00;99.90;;;;;;4961661;28;20217;-63
2022/08/16 03:56:51;;;;;;;21.63;19.57;;;19.00;99.90;;;;;;4985721;28;20222;-63
2022/08/16 03:59:17;;;;;;;23.00;20.77;;;19.00;99.90;;;;;;4967381;28;20249;-63
2022/08/16 04:01:43;;;;;;;21.87;19.67;;;19.00;99.90;;;;;;4978322;28;20295;-62
2022/08/16 04:04:08;;;;;;;21.97;19.77;;;19.00;99.90;;;;;;4963925;28;20219;-63
2022/08/16 04:06:34;;;;;;;20.27;18.37;;;19.00;99.90;;;;;;4984350;28;20287;-63
2022/08/16 04:08:59;;;;;;;20.30;18.33;;;19.00;99.90;;;;;;4962997;28;20200;-63
2022/08/16 04:11:25;;;;;;;20.77;18.83;;;19.00;99.90;;;;;;4963070;28;20287;-63
2022/08/16 04:13:50;;;;;;;22.97;20.87;;;19.00;99.90;;;;;;4970480;28;20208;-63
2022/08/16 04:16:16;;;;;;;21.50;19.47;;;19.00;99.90;;;;;;4982163;28;20205;-63
2022/08/16 04:18:42;;;;;;;22.23;20.10;;;19.00;99.90;;;;;;4972240;28;20635;-63
2022/08/16 04:21:08;;;;;;;24.00;21.17;;;19.10;99.90;;;;;;4979619;28;20627;-64
2022/08/16 04:23:35;;;;;;;22.27;20.00;;;19.10;99.90;;;;;;4970438;28;20206;-63
2022/08/16 04:26:00;;;;;;;24.30;21.70;;;19.10;99.90;;;;;;4957928;28;20197;-63
2022/08/16 04:28:26;;;;;;;21.77;19.67;;;19.10;99.90;;;;;;4957759;28;20202;-61
2022/08/16 04:30:52;;;;;;;21.77;19.77;;;19.10;99.90;;;;;;4956668;28;20190;-62
2022/08/16 04:33:17;;;;;;;22.43;20.07;;;19.20;99.90;;;;;;4970941;28;20331;-63
2022/08/16 04:35:43;;;;;;;23.20;20.77;;;19.10;99.90;;;;;;4965739;28;20431;-61
2022/08/16 04:38:08;;;;;;;22.30;20.20;;;19.20;99.90;;;;;;4965309;28;20202;-62
2022/08/16 04:40:34;;;;;;;21.77;19.67;;;19.20;99.90;;;;;;4959638;28;20212;-62
2022/08/16 04:43:00;;;;;;;22.10;19.90;;;19.20;99.90;;;;;;4982028;28;20204;-62
2022/08/16 04:45:26;;;;;;;22.97;20.87;;;19.20;99.90;;;;;;4954662;28;20670;-63
2022/08/16 04:47:51;;;;;;;22.13;20.03;;;19.20;99.90;;;;;;4966849;28;20679;-62
2022/08/16 04:50:21;;;;;;;20.03;18.23;;;19.30;99.90;;;;;;4963568;28;20213;-62
2022/08/16 04:52:48;;;;;;;21.63;19.63;;;19.30;99.90;;;;;;4972001;28;20201;-62
2022/08/16 04:55:22;;;;;;;21.73;19.67;;;19.30;99.90;;;;;;4956659;28;20288;-62
2022/08/16 04:57:50;;;;;;;22.50;18.97;;;19.30;99.90;;;;;;4954971;28;20378;-62
2022/08/16 05:00:21;;;;;;;20.80;18.90;;;19.40;99.90;;;;;;4963326;28;20261;-61
2022/08/16 05:02:51;;;;;;;20.83;18.83;;;19.40;99.90;;;;;;4954227;28;20553;-62
2022/08/16 05:05:17;;;;;;;20.63;18.57;;;19.50;99.90;;;;;;4951559;28;20184;-62
2022/08/16 05:07:43;;;;;;;20.77;18.60;;;19.50;99.90;;;;;;4977776;28;20201;-61
2022/08/16 05:10:09;;;;;;;21.27;19.17;;;19.60;99.90;;;;;;4953725;28;20440;-63
2022/08/16 05:12:35;;;;;;;21.90;19.70;;;19.70;99.90;;;;;;4975424;28;20233;-63
2022/08/16 05:15:02;;;;;;;20.87;18.67;;;19.70;99.90;;;;;;4951004;28;20210;-62
2022/08/16 05:17:30;;;;;;;19.87;17.77;;;19.80;99.90;;;;;;4966767;28;20204;-62
2022/08/16 05:19:56;;;;;;;18.67;16.93;;;19.80;99.90;;;;;;4952997;28;20296;-62
2022/08/16 05:22:21;;;;;;;17.70;16.10;;;19.80;99.90;;;;;;4979589;28;20775;-62
2022/08/16 05:24:48;;;;;;;18.33;16.73;;;19.90;99.90;;;;;;4952508;28;20205;-63
2022/08/16 05:27:14;;;;;;;17.57;15.87;;;20.00;99.90;;;;;;4977802;28;20197;-63
2022/08/16 05:29:39;;;;;;;18.03;16.23;;;20.00;99.90;;;;;;4958846;28;20227;-63
2022/08/16 05:32:05;;;;;;;17.17;15.67;;;20.10;99.90;;;;;;4985205;28;20690;-62
2022/08/16 05:34:31;;;;;;;17.13;15.43;;;20.20;99.90;;;;;;4961424;28;20209;-63
2022/08/16 05:36:56;;;;;;;16.07;14.57;;;20.40;99.90;;;;;;4976882;28;20440;-63
2022/08/16 05:39:23;;;;;;;17.33;15.10;;;20.50;99.90;;;;;;4960397;28;20566;-63
2022/08/16 05:41:49;;;;;;;17.03;15.43;;;20.50;99.90;;;;;;4972078;28;20213;-63
2022/08/16 05:44:16;;;;;;;17.50;15.67;;;20.60;99.90;;;;;;4957063;28;20209;-62
2022/08/16 05:46:43;;;;;;;16.90;15.20;;;20.70;99.90;;;;;;4981476;28;20197;-63
2022/08/16 05:49:12;;;;;;;17.43;15.63;;;20.80;99.90;;;;;;4973826;28;20259;-63
2022/08/16 05:51:38;;;;;;;17.60;15.60;;;20.90;99.90;;;;;;4978539;28;20801;-63
2022/08/16 05:54:04;;;;;;;18.33;16.40;;;21.00;99.90;;;;;;4964218;28;20236;-63
2022/08/16 05:56:29;;;;;;;16.53;14.93;;;21.10;99.90;;;;;;4985126;28;20291;-63
2022/08/16 05:58:55;;;;;;;17.27;15.77;;;21.20;99.90;;;;;;4958081;28;20250;-63
2022/08/16 06:01:20;;;;;;;16.50;14.97;;;21.20;99.90;;;;;;4966433;28;20193;-63
2022/08/16 06:03:46;;;;;;;16.13;14.63;;;21.30;99.90;;;;;;4970139;28;20495;-63
2022/08/16 06:06:11;;;;;;;16.17;14.60;;;21.40;99.90;;;;;;4958588;28;20217;-63
2022/08/16 06:08:36;;;;;;;16.07;14.40;;;21.50;99.90;;;;;;4970711;28;20724;-63
2022/08/16 06:11:02;;;;;;;14.87;13.57;;;21.50;99.90;;;;;;4952860;28;20189;-61
2022/08/16 06:13:27;;;;;;;18.73;16.93;;;21.60;99.90;;;;;;4965598;28;20256;-64
2022/08/16 06:15:53;;;;;;;17.03;15.43;;;21.70;99.90;;;;;;4947557;29;20209;-63
2022/08/16 06:18:18;;;;;;;16.07;14.40;;;21.80;99.90;;;;;;4964026;28;20198;-63
2022/08/16 06:20:44;;;;;;;15.57;14.17;;;21.90;99.90;;;;;;4964844;28;20228;-64
2022/08/16 06:23:10;;;;;;;14.70;13.40;;;21.90;99.90;;;;;;4971645;28;20226;-63
2022/08/16 06:25:36;;;;;;;14.73;13.43;;;22.00;99.90;;;;;;4960928;28;20194;-64
2022/08/16 06:28:03;;;;;;;14.07;12.63;;;22.10;99.90;;;;;;4978505;28;20220;-63
2022/08/16 06:30:31;;;;;;;15.23;13.93;;;22.20;99.90;;;;;;4958325;28;20202;-63
2022/08/16 06:32:56;;;;;;;14.23;12.93;;;22.30;99.90;;;;;;4982608;28;20228;-63
2022/08/16 06:35:23;;;;;;;13.97;12.67;;;22.30;99.90;;;;;;4968714;28;20233;-61
2022/08/16 06:37:48;;;;;;;14.00;12.80;;;22.40;99.90;;;;;;4975812;28;20201;-63
2022/08/16 06:40:14;;;;;;;13.83;12.43;;;22.50;99.90;;;;;;4956551;28;20708;-63
2022/08/16 06:42:39;;;;;;;14.25;12.88;;;22.50;99.90;;;;;;4983382;28;20726;-63
2022/08/16 06:45:05;;;;;;;14.30;12.83;;;22.70;99.90;;;;;;4958397;28;20361;-63
2022/08/16 06:47:31;;;;;;;13.60;12.50;;;22.80;99.90;;;;;;4977768;28;20201;-62
2022/08/16 06:49:56;;;;;;;16.53;12.90;;;22.80;99.90;;;;;;4963436;28;20209;-63
2022/08/16 06:52:22;;;;;;;13.88;12.68;;;22.90;99.90;;;;;;4973445;28;20235;-63
2022/08/16 06:54:48;;;;;;;15.97;14.23;;;23.00;99.90;;;;;;4957166;28;20205;-63
2022/08/16 06:57:13;;;;;;;14.27;12.43;;;23.00;99.90;;;;;;4988546;28;20573;-62
2022/08/16 06:59:39;;;;;;;14.32;12.93;;;23.10;99.90;;;;;;4970955;28;20435;-63
2022/08/16 07:02:04;;;;;;;14.52;12.93;;;23.20;99.90;;;;;;4980522;28;20592;-63
2022/08/16 07:04:30;;;;;;;12.93;11.73;;;23.20;99.90;;;;;;4965645;28;20205;-62
2022/08/16 07:06:56;;;;;;;14.95;13.20;;;23.30;99.90;;;;;;4986192;28;20682;-61
2022/08/16 07:09:22;;;;;;;14.98;12.98;;;23.30;99.90;;;;;;4967804;28;20206;-61
2022/08/16 07:11:47;;;;;;;14.32;13.02;;;23.40;99.90;;;;;;4970459;28;20906;-61
2022/08/16 07:14:13;;;;;;;14.10;12.05;;;23.50;99.90;;;;;;4969781;28;20206;-62
2022/08/16 07:16:40;;;;;;;13.93;12.73;;;23.60;99.90;;;;;;4968031;28;20198;-62
2022/08/16 07:19:07;;;;;;;13.82;12.32;;;23.70;99.90;;;;;;4971822;28;20200;-62
2022/08/16 07:21:35;;;;;;;14.05;12.82;;;23.70;99.90;;;;;;4956848;28;20213;-62
2022/08/16 07:24:01;;;;;;;13.43;12.18;;;23.80;99.90;;;;;;4979240;28;20209;-62
2022/08/16 07:26:26;;;;;;;14.25;12.85;;;23.90;99.90;;;;;;4959387;28;20656;-62
2022/08/16 07:28:52;;;;;;;15.15;13.85;;;23.90;99.90;;;;;;4967321;28;20281;-62
2022/08/16 07:31:19;;;;;;;14.65;12.60;;;24.00;99.90;;;;;;4957285;28;20203;-62
2022/08/16 07:33:45;;;;;;;14.80;13.40;;;24.10;99.90;;;;;;4970039;28;20204;-63
2022/08/16 07:36:14;;;;;;;13.88;12.68;;;24.20;99.90;;;;;;4949214;28;20296;-63
2022/08/16 07:38:41;;;;;;;13.65;12.35;;;24.20;99.90;;;;;;4958429;28;20634;-64
2022/08/16 07:41:06;;;;;;;14.35;12.85;;;24.30;99.90;;;;;;4958032;28;20207;-63
2022/08/16 07:43:32;;;;;;;15.77;14.38;;;24.30;99.90;;;;;;4957634;28;20677;-63
2022/08/16 07:45:59;;;;;;;14.30;12.68;;;24.40;99.90;;;;;;4957779;28;20186;-65
2022/08/16 07:48:25;;;;;;;13.35;12.15;;;24.50;99.90;;;;;;4960289;28;20183;-64
2022/08/16 07:50:52;;;;;;;15.32;12.93;;;24.50;99.90;;;;;;4957199;28;20643;-63
2022/08/16 07:53:20;;;;;;;13.77;12.65;;;24.50;99.90;;;;;;4962688;28;20663;-63
2022/08/16 07:55:46;;;;;;;14.43;13.23;;;24.70;99.90;;;;;;4955869;28;20342;-63
2022/08/16 07:58:12;;;;;;;14.52;13.25;;;24.80;99.90;;;;;;4975183;28;20315;-64
2022/08/16 08:00:38;;;;;;;14.40;13.20;;;24.70;99.90;;;;;;4956592;28;20202;-66
2022/08/16 08:03:03;;;;;;;13.18;12.00;;;24.60;99.90;;;;;;4969190;28;20212;-63
2022/08/16 08:05:29;;;;;;;14.07;12.88;;;24.70;99.90;;;;;;4951608;28;20732;-64
2022/08/16 08:07:55;;;;;;;13.85;12.57;;;24.60;99.90;;;;;;4951291;28;20189;-63
2022/08/16 08:10:22;;;;;;;14.95;13.50;;;24.70;99.90;;;;;;4958048;28;20193;-63
2022/08/16 08:12:52;;;;;;;13.77;12.63;;;24.70;99.90;;;;;;4958947;28;20196;-63
2022/08/16 08:15:23;;;;;;;13.65;12.35;;;24.70;99.90;;;;;;4961410;28;20208;-63
2022/08/16 08:17:49;;;;;;;13.05;11.95;;;24.80;99.90;;;;;;4957942;28;20190;-71
2022/08/16 08:20:17;;;;;;;13.63;12.40;;;24.80;99.90;;;;;;4957881;28;20208;-76
2022/08/16 08:22:45;;;;;;;12.95;11.85;;;24.80;99.90;;;;;;4958116;28;20240;-63
2022/08/16 08:25:12;;;;;;;14.13;12.88;;;24.90;99.90;;;;;;4959101;28;20204;-64
2022/08/16 08:27:37;;;;;;;12.93;11.77;;;25.00;99.90;;;;;;4978949;28;20198;-63
2022/08/16 08:30:04;;;;;;;12.45;11.32;;;25.10;99.90;;;;;;4960090;28;20213;-63
2022/08/16 08:32:30;;;;;;;12.23;11.20;;;25.20;99.90;;;;;;4965218;28;20221;-63
2022/08/16 08:34:57;;;;;;;12.55;11.27;;;25.20;99.90;;;;;;4959123;28;20636;-63
2022/08/16 08:37:24;;;;;;;11.23;10.23;;;25.30;99.90;;;;;;4951851;28;20186;-62
2022/08/16 08:39:50;;;;;;;11.65;10.65;;;25.30;99.90;;;;;;4955822;28;20423;-62
2022/08/16 08:42:15;;;;;;;11.00;9.90;;;25.40;99.90;;;;;;4959722;28;20248;-62
2022/08/16 08:44:41;;;;;;;9.98;9.02;;;25.40;99.90;;;;;;4953991;28;20205;-64
2022/08/16 08:47:07;;;;;;;10.77;9.80;;;25.60;99.90;;;;;;4982397;28;20196;-65
2022/08/16 08:49:35;;;;;;;11.52;10.63;;;25.70;99.90;;;;;;4973472;28;20543;-64
2022/08/16 08:52:00;;;;;;;10.50;9.48;;;25.80;99.90;;;;;;4972007;28;20228;-64
2022/08/16 08:54:26;;;;;;;11.10;10.10;;;25.70;99.90;;;;;;4962879;28;20291;-64
2022/08/16 08:56:53;;;;;;;11.40;10.27;;;25.80;99.90;;;;;;4948503;28;20563;-64
2022/08/16 08:59:18;;;;;;;11.27;10.10;;;25.90;99.90;;;;;;4969940;28;20702;-64
2022/08/16 09:01:45;;;;;;;10.10;8.85;;;26.00;99.90;;;;;;4956901;28;20271;-64
2022/08/16 09:04:10;;;;;;;10.10;9.18;;;26.00;99.90;;;;;;4976451;28;20287;-64
2022/08/16 09:06:37;;;;;;;9.98;8.80;;;26.10;99.90;;;;;;4957246;28;20307;-64
2022/08/16 09:09:04;;;;;;;10.30;9.50;;;26.20;99.90;;;;;;4955062;28;20205;-64
2022/08/16 09:11:29;;;;;;;9.75;8.85;;;26.20;99.90;;;;;;4960470;28;20195;-63
2022/08/16 09:13:55;;;;;;;10.95;9.95;;;26.30;99.90;;;;;;4962457;28;20196;-63
2022/08/16 09:16:21;;;;;;;11.02;8.88;;;26.40;99.90;;;;;;4961244;28;20216;-70
2022/08/16 09:18:46;;;;;;;9.38;8.50;;;26.50;99.90;;;;;;4966105;28;20196;-64
2022/08/16 09:21:13;;;;;;;8.60;7.85;;;26.50;99.90;;;;;;4959039;28;20189;-63
2022/08/16 09:23:39;;;;;;;8.32;7.63;;;26.50;99.90;;;;;;4961445;28;20218;-63
2022/08/16 09:26:07;;;;;;;9.95;9.00;;;26.60;99.90;;;;;;4959640;28;20275;-63
2022/08/16 09:28:33;;;;;;;10.02;9.02;;;26.70;99.90;;;;;;4974784;28;20201;-63
2022/08/16 09:30:59;;;;;;;10.35;9.30;;;26.80;99.90;;;;;;4956944;28;20262;-63
2022/08/16 09:33:25;;;;;;;9.77;9.05;;;26.90;99.90;;;;;;4963486;28;20240;-63
2022/08/16 09:35:51;;;;;;;8.95;8.05;;;27.00;99.90;;;;;;4956026;28;20635;-64
2022/08/16 09:38:16;;;;;;;8.95;7.68;;;27.00;99.90;;;;;;4971295;28;20189;-63
2022/08/16 09:40:43;;;;;;;9.23;8.52;;;27.10;99.90;;;;;;4962999;28;20219;-63
2022/08/16 09:43:16;;;;;;;8.52;7.93;;;27.10;99.90;;;;;;4971180;28;20209;-64
2022/08/16 09:45:42;;;;;;;8.30;7.45;;;27.10;99.90;;;;;;4961483;28;20608;-64
2022/08/16 09:48:10;;;;;;;8.80;8.10;;;27.10;99.90;;;;;;4959521;28;20903;-63
2022/08/16 09:50:37;;;;;;;9.85;8.88;;;27.20;99.90;;;;;;4957988;28;20851;-63
2022/08/16 09:53:06;;;;;;;8.80;8.02;;;27.40;99.90;;;;;;4954716;28;20206;-63
2022/08/16 09:55:31;;;;;;;8.55;7.57;;;27.40;99.90;;;;;;4960471;28;20206;-64
2022/08/16 09:57:58;;;;;;;7.80;7.20;;;27.40;99.90;;;;;;4957728;28;20239;-65
2022/08/16 10:00:25;;;;;;;7.43;6.80;;;27.60;99.90;;;;;;4956023;28;20201;-63
2022/08/16 10:02:51;;;;;;;10.98;6.43;;;27.70;99.20;;;;;;4962877;28;20264;-64
2022/08/16 10:05:17;;;;;;;7.70;6.75;;;27.90;98.30;;;;;;4958680;28;20696;-64
2022/08/16 10:07:44;;;;;;;8.45;7.63;;;27.90;97.80;;;;;;4968053;28;20310;-65
2022/08/16 10:10:09;;;;;;;11.18;6.95;;;27.70;97.50;;;;;;4960798;28;20206;-64
2022/08/16 10:15:20;;;;;;;7.72;7.13;;;27.60;97.80;;;;;;4948112;28;20235;-63
2022/08/16 10:17:49;;;;;;;7.30;6.60;;;27.90;97.30;;;;;;4971752;28;20208;-63
2022/08/16 10:20:15;;;;;;;7.22;6.68;;;27.90;96.50;;;;;;4955475;28;20302;-63
2022/08/16 10:22:40;;;;;;;7.80;6.97;;;27.70;96.50;;;;;;4974450;28;20300;-64
2022/08/16 10:25:07;;;;;;;7.32;6.60;;;27.60;96.70;;;;;;4971014;28;20212;-64
2022/08/16 10:27:34;;;;;;;7.05;6.45;;;27.50;97.40;;;;;;4969079;28;20850;-64
2022/08/16 10:30:00;;;;;;;6.70;6.10;;;27.60;96.60;;;;;;4965011;28;20214;-65
2022/08/16 10:32:27;;;;;;;7.20;6.57;;;27.80;96.70;;;;;;4964285;28;20222;-65
2022/08/16 10:34:52;;;;;;;7.05;5.30;;;28.00;95.70;;;;;;4965364;28;20680;-65
2022/08/16 10:37:18;;;;;;;7.47;5.43;;;28.30;94.40;;;;;;4978313;28;20234;-65
2022/08/16 10:39:43;;;;;;;6.10;5.57;;;28.50;93.80;;;;;;4973725;28;20271;-65
2022/08/16 10:42:10;;;;;;;5.65;5.25;;;28.80;93.10;;;;;;4954534;28;20216;-64
2022/08/16 10:44:36;;;;;;;5.97;5.47;;;29.00;93.00;;;;;;4974679;28;20202;-64
2022/08/16 10:47:01;;;;;;;5.97;5.47;;;29.20;92.50;;;;;;4956414;28;20233;-64
2022/08/16 10:49:26;;;;;;;7.95;5.68;;;29.30;92.40;;;;;;4952928;28;20213;-64
2022/08/16 10:51:54;;;;;;;6.18;5.65;;;29.30;92.00;;;;;;4956263;28;20221;-63
2022/08/16 10:54:20;;;;;;;6.85;6.30;;;29.10;91.80;;;;;;4958153;28;20224;-63
2022/08/16 10:56:45;;;;;;;6.05;5.43;;;29.10;91.00;;;;;;4958747;28;20659;-63
2022/08/16 10:59:11;;;;;;;6.25;5.80;;;28.80;91.00;;;;;;4954788;28;20202;-64
2022/08/16 11:01:58;;;;;;;5.50;5.10;;;28.60;91.60;;;;;;4953487;28;20344;-64
2022/08/16 11:04:25;;;;;;;5.82;5.18;;;28.50;91.70;;;;;;4956533;28;20744;-64
2022/08/16 11:06:51;;;;;;;6.50;5.93;;;28.50;91.60;;;;;;4954435;28;20194;-64
2022/08/16 11:09:16;;;;;;;7.65;6.47;;;28.50;91.50;;;;;;4970780;28;20679;-64
2022/08/16 11:11:42;;;;;;;7.07;6.38;;;28.80;90.80;;;;;;4957330;28;20212;-64
2022/08/16 11:14:08;;;;;;;6.50;6.00;;;29.10;90.10;;;;;;4959729;28;20214;-63
2022/08/16 11:16:34;;;;;;;6.93;6.32;;;29.20;89.10;;;;;;4957093;28;20190;-64
2022/08/16 11:18:59;;;;;;;6.93;6.35;;;29.10;88.40;;;;;;4963256;28;20203;-64
2022/08/16 11:21:25;;;;;;;6.38;5.78;;;29.00;89.10;;;;;;4958013;28;20197;-71
2022/08/16 11:23:52;;;;;;;6.28;5.68;;;29.00;89.10;;;;;;4980691;28;20217;-65
2022/08/16 11:26:18;;;;;;;6.80;6.22;;;29.00;88.90;;;;;;4959663;28;20846;-66
2022/08/16 11:28:43;;;;;;;6.88;6.25;;;29.20;89.10;;;;;;4974873;28;20190;-67
2022/08/16 11:31:09;;;;;;;6.80;6.10;;;29.80;88.00;;;;;;4968612;28;20260;-65
2022/08/16 11:33:35;;;;;;;6.32;5.68;;;30.40;83.20;;;;;;4964899;28;20390;-67
2022/08/16 11:36:01;;;;;;;6.55;5.97;;;30.90;81.30;;;;;;4956160;28;20229;-66
2022/08/16 11:38:27;;;;;;;7.30;6.70;;;31.10;79.60;;;;;;4960167;28;20198;-67
2022/08/16 11:40:59;;;;;;;8.18;6.57;;;31.00;80.10;;;;;;4966165;28;20724;-66
2022/08/16 11:43:30;;;;;;;7.15;6.55;;;31.40;80.10;;;;;;4965093;28;20742;-66
2022/08/16 11:45:58;;;;;;;6.50;6.00;;;32.20;77.70;;;;;;4951798;28;20256;-66
2022/08/16 11:48:26;;;;;;;7.88;6.88;;;32.90;74.60;;;;;;4973754;28;20287;-66
2022/08/16 11:50:52;;;;;;;6.82;6.28;;;33.30;73.30;;;;;;4955926;28;20237;-66
2022/08/16 11:53:20;;;;;;;6.15;5.70;;;33.80;71.00;;;;;;4985081;28;20734;-67
2022/08/16 11:55:46;;;;;;;7.68;6.80;;;34.50;68.90;;;;;;4964976;28;20222;-70
2022/08/16 11:58:12;;;;;;;7.93;7.15;;;35.30;68.80;;;;;;4979323;28;20200;-66
2022/08/16 12:00:40;;;;;;;6.13;5.72;;;36.20;65.90;;;;;;4963169;28;20206;-66
2022/08/16 12:03:06;;;;;;;6.95;6.35;;;36.80;61.10;;;;;;4984577;28;20328;-66
2022/08/16 12:05:32;;;;;;;6.63;6.03;;;37.40;57.70;;;;;;4963669;28;20305;-66
2022/08/16 12:07:58;;;;;;;6.15;5.65;;;37.90;56.70;;;;;;4968396;28;20189;-66
2022/08/16 12:10:24;;;;;;;5.90;5.47;;;38.30;53.20;;;;;;4957796;28;20301;-66
2022/08/16 12:12:50;;;;;;;6.13;5.63;;;38.20;52.10;;;;;;4973858;28;20699;-66
2022/08/16 12:15:16;;;;;;;5.80;5.32;;;37.40;51.70;;;;;;4962162;28;20252;-67
2022/08/16 12:17:42;;;;;;;6.50;5.90;;;37.30;51.70;;;;;;4960088;28;20198;-66
2022/08/16 12:20:11;;;;;;;6.07;5.57;;;36.80;52.20;;;;;;4960262;28;20387;-66
2022/08/16 12:22:37;;;;;;;6.38;5.78;;;36.50;52.30;;;;;;4958878;28;20680;-66
2022/08/16 12:25:05;;;;;;;5.85;5.35;;;36.90;52.40;;;;;;4960378;28;20198;-66
2022/08/16 12:27:31;;;;;;;5.03;4.63;;;37.80;53.00;;;;;;4955594;28;20194;-66
2022/08/16 12:29:57;;;;;;;6.50;5.85;;;38.50;49.60;;;;;;4974919;28;20284;-66
2022/08/16 12:32:23;;;;;;;6.18;5.43;;;39.10;48.10;;;;;;4960966;28;20296;-68